sensor_id;sensor_type;location;lat;lon;timestamp;P1;durP1;ratioP1;P2;durP2;ratioP2
43154;SDS011;34212;51.018;13.586;2023-04-01T00:09:53;1.80;;;1.00;;
43154;SDS011;34212;51.018;13.586;2023-04-01T00:14:55;4.97;;;1.58;;
43154;SDS011;34212;51.018;13.586;2023-04-01T00:19:57;6.53;;;1.13;;
43154;SDS011;34212;51.018;13.586;2023-04-01T00:24:59;3.10;;;1.00;;
43154;SDS011;34212;51.018;13.586;2023-04-01T00:30:01;2.28;;;1.00;;
43154;SDS011;34212;51.018;13.586;2023-04-01T00:35:03;6.25;;;1.33;;
43154;SDS011;34212;51.018;13.586;2023-04-01T00:40:06;5.03;;;1.40;;
43154;SDS011;34212;51.018;13.586;2023-04-01T00:45:39;3.35;;;1.10;;
43154;SDS011;34212;51.018;13.586;2023-04-01T00:50:50;4.18;;;1.10;;
43154;SDS011;34212;51.018;13.586;2023-04-01T01:01:33;4.97;;;1.33;;
43154;SDS011;34212;51.018;13.586;2023-04-01T01:28:08;3.22;;;1.00;;
43154;SDS011;34212;51.018;13.586;2023-04-01T01:38:28;5.00;;;1.42;;
43154;SDS011;34212;51.018;13.586;2023-04-01T01:43:36;5.85;;;1.00;;
43154;SDS011;34212;51.018;13.586;2023-04-01T01:48:42;6.63;;;1.20;;
43154;SDS011;34212;51.018;13.586;2023-04-01T01:53:45;3.22;;;1.25;;
43154;SDS011;34212;51.018;13.586;2023-04-01T01:58:49;3.30;;;0.98;;
43154;SDS011;34212;51.018;13.586;2023-04-01T02:03:57;2.80;;;1.00;;
43154;SDS011;34212;51.018;13.586;2023-04-01T02:09:06;2.95;;;1.23;;
43154;SDS011;34212;51.018;13.586;2023-04-01T02:14:15;3.05;;;0.98;;
43154;SDS011;34212;51.018;13.586;2023-04-01T02:19:19;4.93;;;1.33;;
43154;SDS011;34212;51.018;13.586;2023-04-01T02:24:25;4.00;;;1.20;;
43154;SDS011;34212;51.018;13.586;2023-04-01T02:29:29;4.18;;;1.33;;
43154;SDS011;34212;51.018;13.586;2023-04-01T02:34:31;4.88;;;1.10;;
43154;SDS011;34212;51.018;13.586;2023-04-01T02:39:33;4.40;;;1.20;;
43154;SDS011;34212;51.018;13.586;2023-04-01T02:44:35;4.55;;;1.00;;
43154;SDS011;34212;51.018;13.586;2023-04-01T02:49:37;5.80;;;1.20;;
43154;SDS011;34212;51.018;13.586;2023-04-01T02:54:38;3.15;;;1.10;;
43154;SDS011;34212;51.018;13.586;2023-04-01T02:59:40;5.30;;;1.10;;
43154;SDS011;34212;51.018;13.586;2023-04-01T03:04:42;4.72;;;1.50;;
43154;SDS011;34212;51.018;13.586;2023-04-01T03:09:44;5.05;;;1.58;;
43154;SDS011;34212;51.018;13.586;2023-04-01T03:14:45;3.72;;;1.08;;
43154;SDS011;34212;51.018;13.586;2023-04-01T03:19:47;5.38;;;1.95;;
43154;SDS011;34212;51.018;13.586;2023-04-01T03:24:48;3.38;;;1.92;;
43154;SDS011;34212;51.018;13.586;2023-04-01T03:29:50;4.65;;;1.30;;
43154;SDS011;34212;51.018;13.586;2023-04-01T03:34:52;2.45;;;1.08;;
43154;SDS011;34212;51.018;13.586;2023-04-01T03:39:53;6.20;;;1.30;;
43154;SDS011;34212;51.018;13.586;2023-04-01T03:44:55;5.13;;;1.23;;
43154;SDS011;34212;51.018;13.586;2023-04-01T03:49:56;3.88;;;1.23;;
43154;SDS011;34212;51.018;13.586;2023-04-01T03:54:59;3.58;;;1.13;;
43154;SDS011;34212;51.018;13.586;2023-04-01T04:00:02;7.15;;;1.40;;
43154;SDS011;34212;51.018;13.586;2023-04-01T04:05:14;3.60;;;1.30;;
43154;SDS011;34212;51.018;13.586;2023-04-01T04:10:17;4.60;;;1.17;;
43154;SDS011;34212;51.018;13.586;2023-04-01T04:15:20;3.58;;;1.10;;
43154;SDS011;34212;51.018;13.586;2023-04-01T04:20:21;8.48;;;1.33;;
43154;SDS011;34212;51.018;13.586;2023-04-01T04:25:23;3.20;;;0.90;;
43154;SDS011;34212;51.018;13.586;2023-04-01T04:30:24;4.88;;;1.00;;
43154;SDS011;34212;51.018;13.586;2023-04-01T04:35:26;6.93;;;1.75;;
43154;SDS011;34212;51.018;13.586;2023-04-01T04:40:27;4.72;;;1.75;;
43154;SDS011;34212;51.018;13.586;2023-04-01T04:45:29;5.75;;;1.02;;
43154;SDS011;34212;51.018;13.586;2023-04-01T04:50:32;3.67;;;1.33;;
43154;SDS011;34212;51.018;13.586;2023-04-01T04:55:33;2.33;;;0.82;;
43154;SDS011;34212;51.018;13.586;2023-04-01T05:00:54;3.83;;;0.98;;
43154;SDS011;34212;51.018;13.586;2023-04-01T05:06:02;4.60;;;1.10;;
43154;SDS011;34212;51.018;13.586;2023-04-01T05:11:06;5.82;;;1.00;;
43154;SDS011;34212;51.018;13.586;2023-04-01T05:16:15;4.50;;;1.02;;
43154;SDS011;34212;51.018;13.586;2023-04-01T05:21:18;3.63;;;1.10;;
43154;SDS011;34212;51.018;13.586;2023-04-01T05:26:20;3.25;;;1.00;;
43154;SDS011;34212;51.018;13.586;2023-04-01T05:31:21;4.45;;;1.63;;
43154;SDS011;34212;51.018;13.586;2023-04-01T05:36:25;5.47;;;1.88;;
43154;SDS011;34212;51.018;13.586;2023-04-01T05:41:28;2.10;;;1.00;;
43154;SDS011;34212;51.018;13.586;2023-04-01T05:46:30;3.93;;;1.20;;
43154;SDS011;34212;51.018;13.586;2023-04-01T05:51:53;1.65;;;0.88;;
43154;SDS011;34212;51.018;13.586;2023-04-01T05:56:54;2.85;;;1.08;;
43154;SDS011;34212;51.018;13.586;2023-04-01T06:01:56;2.90;;;1.27;;
43154;SDS011;34212;51.018;13.586;2023-04-01T06:07:00;3.20;;;0.90;;
43154;SDS011;34212;51.018;13.586;2023-04-01T06:22:31;1.40;;;0.73;;
43154;SDS011;34212;51.018;13.586;2023-04-01T06:27:55;1.98;;;1.00;;
43154;SDS011;34212;51.018;13.586;2023-04-01T06:33:05;3.25;;;1.05;;
43154;SDS011;34212;51.018;13.586;2023-04-01T07:00:57;2.25;;;1.00;;
43154;SDS011;34212;51.018;13.586;2023-04-01T07:06:03;3.70;;;0.90;;
43154;SDS011;34212;51.018;13.586;2023-04-01T07:11:19;4.40;;;1.02;;
43154;SDS011;34212;51.018;13.586;2023-04-01T07:17:09;5.60;;;1.13;;
43154;SDS011;34212;51.018;13.586;2023-04-01T07:22:45;4.45;;;1.00;;
43154;SDS011;34212;51.018;13.586;2023-04-01T07:27:59;2.83;;;0.98;;
43154;SDS011;34212;51.018;13.586;2023-04-01T07:33:53;2.83;;;1.13;;
43154;SDS011;34212;51.018;13.586;2023-04-01T07:54:49;3.42;;;1.13;;
43154;SDS011;34212;51.018;13.586;2023-04-01T08:05:34;3.28;;;1.27;;
43154;SDS011;34212;51.018;13.586;2023-04-01T08:10:51;5.07;;;1.17;;
43154;SDS011;34212;51.018;13.586;2023-04-01T08:16:28;3.55;;;1.45;;
43154;SDS011;34212;51.018;13.586;2023-04-01T08:22:04;1.83;;;1.08;;
43154;SDS011;34212;51.018;13.586;2023-04-01T08:27:31;3.08;;;0.80;;
43154;SDS011;34212;51.018;13.586;2023-04-01T08:32:39;2.85;;;1.10;;
43154;SDS011;34212;51.018;13.586;2023-04-01T08:37:47;3.97;;;1.30;;
43154;SDS011;34212;51.018;13.586;2023-04-01T08:43:05;2.95;;;1.10;;
43154;SDS011;34212;51.018;13.586;2023-04-01T09:10:34;2.03;;;0.82;;
43154;SDS011;34212;51.018;13.586;2023-04-01T09:27:03;1.52;;;1.10;;
43154;SDS011;34212;51.018;13.586;2023-04-01T09:43:30;2.63;;;1.23;;
43154;SDS011;34212;51.018;13.586;2023-04-01T09:59:08;1.95;;;1.02;;
43154;SDS011;34212;51.018;13.586;2023-04-01T11:40:19;2.80;;;1.00;;
43154;SDS011;34212;51.018;13.586;2023-04-01T12:03:48;2.90;;;2.60;;
43154;SDS011;34212;51.018;13.586;2023-04-01T12:14:36;1.42;;;1.00;;
43154;SDS011;34212;51.018;13.586;2023-04-01T12:51:09;1.40;;;0.60;;
43154;SDS011;34212;51.018;13.586;2023-04-01T13:07:34;1.35;;;0.70;;
43154;SDS011;34212;51.018;13.586;2023-04-01T13:28:39;1.73;;;0.90;;
43154;SDS011;34212;51.018;13.586;2023-04-01T13:33:54;1.45;;;0.98;;
43154;SDS011;34212;51.018;13.586;2023-04-01T13:39:14;1.50;;;1.10;;
43154;SDS011;34212;51.018;13.586;2023-04-01T14:06:09;0.80;;;0.80;;
43154;SDS011;34212;51.018;13.586;2023-04-01T14:16:47;1.27;;;0.80;;
43154;SDS011;34212;51.018;13.586;2023-04-01T14:22:13;1.58;;;0.95;;
43154;SDS011;34212;51.018;13.586;2023-04-01T14:32:48;0.90;;;0.82;;
43154;SDS011;34212;51.018;13.586;2023-04-01T14:53:41;0.60;;;0.60;;
43154;SDS011;34212;51.018;13.586;2023-04-01T14:58:57;1.15;;;0.80;;
43154;SDS011;34212;51.018;13.586;2023-04-01T15:14:54;1.52;;;0.75;;
43154;SDS011;34212;51.018;13.586;2023-04-01T15:31:21;2.38;;;1.20;;
43154;SDS011;34212;51.018;13.586;2023-04-01T15:42:09;1.15;;;0.82;;
43154;SDS011;34212;51.018;13.586;2023-04-01T15:58:03;1.10;;;0.90;;
43154;SDS011;34212;51.018;13.586;2023-04-01T16:03:35;1.08;;;0.90;;
43154;SDS011;34212;51.018;13.586;2023-04-01T16:09:02;1.58;;;1.13;;
43154;SDS011;34212;51.018;13.586;2023-04-01T16:30:38;1.67;;;1.13;;
43154;SDS011;34212;51.018;13.586;2023-04-01T16:41:36;2.35;;;1.50;;
43154;SDS011;34212;51.018;13.586;2023-04-01T16:46:46;3.33;;;2.10;;
43154;SDS011;34212;51.018;13.586;2023-04-01T16:57:16;3.67;;;2.40;;
43154;SDS011;34212;51.018;13.586;2023-04-01T17:02:20;2.20;;;1.42;;
43154;SDS011;34212;51.018;13.586;2023-04-01T17:13:33;4.15;;;2.40;;
43154;SDS011;34212;51.018;13.586;2023-04-01T17:18:32;4.30;;;2.30;;
43154;SDS011;34212;51.018;13.586;2023-04-01T17:23:43;2.75;;;1.90;;
43154;SDS011;34212;51.018;13.586;2023-04-01T17:28:58;3.17;;;2.25;;
43154;SDS011;34212;51.018;13.586;2023-04-01T17:34:18;3.40;;;1.85;;
43154;SDS011;34212;51.018;13.586;2023-04-01T17:39:41;3.13;;;1.98;;
43154;SDS011;34212;51.018;13.586;2023-04-01T17:45:08;1.92;;;1.70;;
43154;SDS011;34212;51.018;13.586;2023-04-01T17:50:21;3.53;;;2.93;;
43154;SDS011;34212;51.018;13.586;2023-04-01T18:01:02;3.72;;;3.17;;
43154;SDS011;34212;51.018;13.586;2023-04-01T18:17:18;2.90;;;2.15;;
43154;SDS011;34212;51.018;13.586;2023-04-01T18:27:39;4.10;;;2.10;;
43154;SDS011;34212;51.018;13.586;2023-04-01T18:32:46;2.90;;;2.55;;
43154;SDS011;34212;51.018;13.586;2023-04-01T18:54:11;2.90;;;2.30;;
43154;SDS011;34212;51.018;13.586;2023-04-01T18:59:27;4.03;;;2.85;;
43154;SDS011;34212;51.018;13.586;2023-04-01T19:04:39;2.33;;;1.90;;
43154;SDS011;34212;51.018;13.586;2023-04-01T19:09:44;4.72;;;2.30;;
43154;SDS011;34212;51.018;13.586;2023-04-01T19:25:34;13.50;;;9.05;;
43154;SDS011;34212;51.018;13.586;2023-04-01T19:30:49;7.78;;;5.10;;
43154;SDS011;34212;51.018;13.586;2023-04-01T19:35:57;6.80;;;4.90;;
43154;SDS011;34212;51.018;13.586;2023-04-01T19:41:17;5.93;;;4.60;;
43154;SDS011;34212;51.018;13.586;2023-04-01T19:46:34;7.50;;;5.10;;
43154;SDS011;34212;51.018;13.586;2023-04-01T20:02:51;7.57;;;5.88;;
43154;SDS011;34212;51.018;13.586;2023-04-01T20:08:02;6.72;;;4.57;;
43154;SDS011;34212;51.018;13.586;2023-04-01T20:13:16;5.13;;;4.25;;
43154;SDS011;34212;51.018;13.586;2023-04-01T20:23:41;6.22;;;3.97;;
43154;SDS011;34212;51.018;13.586;2023-04-01T20:45:40;7.05;;;4.50;;
43154;SDS011;34212;51.018;13.586;2023-04-01T20:51:07;6.07;;;4.50;;
43154;SDS011;34212;51.018;13.586;2023-04-01T21:01:40;4.90;;;3.70;;
43154;SDS011;34212;51.018;13.586;2023-04-01T21:07:13;6.32;;;5.20;;
43154;SDS011;34212;51.018;13.586;2023-04-01T21:28:11;6.25;;;4.78;;
43154;SDS011;34212;51.018;13.586;2023-04-01T21:49:28;3.95;;;2.90;;
43154;SDS011;34212;51.018;13.586;2023-04-01T22:00:31;2.55;;;2.35;;
43154;SDS011;34212;51.018;13.586;2023-04-01T22:05:37;2.50;;;1.92;;
43154;SDS011;34212;51.018;13.586;2023-04-01T22:27:16;3.92;;;3.40;;
43154;SDS011;34212;51.018;13.586;2023-04-01T22:32:44;3.97;;;3.30;;
43154;SDS011;34212;51.018;13.586;2023-04-01T22:42:57;4.20;;;3.63;;
43154;SDS011;34212;51.018;13.586;2023-04-01T22:48:09;5.43;;;3.33;;
43154;SDS011;34212;51.018;13.586;2023-04-01T22:58:56;6.07;;;4.53;;
43154;SDS011;34212;51.018;13.586;2023-04-01T23:04:03;9.18;;;4.28;;
43154;SDS011;34212;51.018;13.586;2023-04-01T23:19:26;5.93;;;4.65;;
43154;SDS011;34212;51.018;13.586;2023-04-01T23:24:41;5.53;;;4.32;;
43154;SDS011;34212;51.018;13.586;2023-04-01T23:29:45;5.25;;;4.20;;
43154;SDS011;34212;51.018;13.586;2023-04-01T23:34:47;5.63;;;4.13;;
43154;SDS011;34212;51.018;13.586;2023-04-01T23:39:53;4.60;;;3.60;;
43154;SDS011;34212;51.018;13.586;2023-04-01T23:44:57;6.25;;;4.15;;
43154;SDS011;34212;51.018;13.586;2023-04-01T23:55:32;6.57;;;3.90;;
